Terminal Aerodrome Forecast
Issued by NWS Pendleton, OR

Home | Current Version | Previous Version | Text Only | Print | Product List | Glossary On
Versions: 1 2 3 4 5 6 7 8 9 10 11 12 13 14 15 16 17
660
FTUS46 KPDT 112339
TAFPDT
TAF
KPDT 112339Z 1200/1224 01004KT P6SM -SHRA SCT060 OVC090
     FM120300 VRB05KT P6SM SCT050 OVC080
     FM121800 VRB04KT P6SM VCSH SCT050 OVC070
     FM122100 28006KT P6SM -SHRA BKN040 OVC060=

USA.gov is the U.S. government's official web portal to all federal, state and local government web resources and services.